createdAt,value
2023-04-20T00:00:23.120Z,1.93
2023-04-20T00:01:08.405Z,1.93
2023-04-20T00:01:53.486Z,1.93
2023-04-20T00:02:38.146Z,1.93
2023-04-20T00:03:23.464Z,1.93
2023-04-20T00:04:08.248Z,1.93
2023-04-20T00:04:53.600Z,1.93
2023-04-20T00:05:38.708Z,1.93
2023-04-20T00:06:23.557Z,1.93
2023-04-20T00:07:08.526Z,1.93
2023-04-20T00:07:53.776Z,1.93
2023-04-20T00:08:38.873Z,1.93
2023-04-20T00:09:23.918Z,1.93
2023-04-20T00:10:08.839Z,1.93
2023-04-20T00:10:53.995Z,1.93
2023-04-20T00:11:38.852Z,1.93
2023-04-20T00:12:23.952Z,1.93
2023-04-20T00:13:08.865Z,1.93
2023-04-20T00:13:53.915Z,1.93
2023-04-20T00:14:38.974Z,1.93
2023-04-20T00:15:24.160Z,1.93
2023-04-20T00:16:09.293Z,1.93
2023-04-20T00:16:54.377Z,1.93
2023-04-20T00:17:39.144Z,1.93
2023-04-20T00:18:24.154Z,1.93
2023-04-20T00:19:10.049Z,1.93
2023-04-20T00:19:54.180Z,1.93
2023-04-20T00:20:39.796Z,1.93
2023-04-20T00:21:24.387Z,1.93
2023-04-20T00:22:09.444Z,1.93
2023-04-20T00:22:54.529Z,1.93
2023-04-20T00:23:40.015Z,1.93
2023-04-20T00:24:24.334Z,1.93
2023-04-20T00:25:09.560Z,1.93
2023-04-20T00:25:54.717Z,1.93
2023-04-20T00:26:39.811Z,1.93
2023-04-20T00:27:24.536Z,1.93
2023-04-20T00:28:09.823Z,1.93
2023-04-20T00:28:54.878Z,1.93
2023-04-20T00:29:39.729Z,1.93
2023-04-20T00:30:24.818Z,1.93
2023-04-20T00:31:09.736Z,1.93
2023-04-20T00:31:54.864Z,1.93
2023-04-20T00:32:40.092Z,1.93
2023-04-20T00:33:24.972Z,1.93
2023-04-20T00:34:10.046Z,1.93
2023-04-20T00:34:55.087Z,1.93
2023-04-20T00:35:40.043Z,1.93
2023-04-20T00:36:25.302Z,1.93
2023-04-20T00:37:10.489Z,1.93
2023-04-20T00:37:55.421Z,1.93
2023-04-20T00:38:40.163Z,1.93
2023-04-20T00:39:25.631Z,1.93
2023-04-20T00:40:10.702Z,1.93
2023-04-20T00:40:55.747Z,1.93
2023-04-20T00:41:40.540Z,1.93
2023-04-20T00:42:26.024Z,1.93
2023-04-20T00:43:10.235Z,1.93
2023-04-20T00:43:55.761Z,1.93
2023-04-20T00:44:40.450Z,1.93
2023-04-20T00:45:25.522Z,1.93
2023-04-20T00:46:11.018Z,1.93
2023-04-20T00:46:55.991Z,1.93
2023-04-20T00:47:40.819Z,1.93
2023-04-20T00:48:26.306Z,1.93
2023-04-20T00:49:10.966Z,1.93
2023-04-20T00:49:56.219Z,1.93
2023-04-20T00:50:41.185Z,1.93
2023-04-20T00:51:25.924Z,1.93
2023-04-20T00:52:11.711Z,1.93
2023-04-20T00:52:56.129Z,1.93
2023-04-20T00:53:41.302Z,1.93
2023-04-20T00:54:26.363Z,1.93
2023-04-20T00:55:12.503Z,1.93
2023-04-20T00:55:56.465Z,1.93
2023-04-20T00:56:41.581Z,1.93
2023-04-20T00:57:26.570Z,1.93
2023-04-20T00:58:11.837Z,1.93
2023-04-20T00:58:56.791Z,1.93
2023-04-20T00:59:42.015Z,1.93
2023-04-20T01:00:27.003Z,1.93
2023-04-20T01:01:11.597Z,1.93
2023-04-20T01:01:57.510Z,1.93
2023-04-20T01:02:41.878Z,1.93
2023-04-20T01:03:26.935Z,1.93
2023-04-20T01:04:11.717Z,1.93
2023-04-20T01:04:57.038Z,1.93
2023-04-20T01:05:42.502Z,1.93
2023-04-20T01:06:26.943Z,1.93
2023-04-20T01:07:12.497Z,1.93
2023-04-20T01:07:57.363Z,1.93
2023-04-20T01:08:42.727Z,1.93
2023-04-20T01:09:27.478Z,1.93
2023-04-20T01:10:12.427Z,1.93
2023-04-20T01:10:57.927Z,1.93
2023-04-20T01:11:42.443Z,1.93
2023-04-20T01:12:27.885Z,1.93
2023-04-20T01:13:12.905Z,1.93
2023-04-20T01:13:57.595Z,1.93
2023-04-20T01:14:42.899Z,1.93
2023-04-20T01:15:27.729Z,1.93
2023-04-20T01:16:13.571Z,1.93
2023-04-20T01:16:58.968Z,1.93
2023-04-20T01:17:43.277Z,1.93
2023-04-20T01:18:27.902Z,1.93
2023-04-20T01:19:13.443Z,1.93
2023-04-20T01:19:58.337Z,1.93
2023-04-20T01:20:43.168Z,1.93
2023-04-20T01:21:28.319Z,1.93
2023-04-20T01:22:13.342Z,1.93
2023-04-20T01:22:58.492Z,1.93
2023-04-20T01:23:43.348Z,1.93
2023-04-20T01:24:28.504Z,1.93
2023-04-20T01:25:13.456Z,1.93
2023-04-20T01:25:58.827Z,1.93
2023-04-20T01:26:43.288Z,1.93
2023-04-20T01:27:28.527Z,1.93
2023-04-20T01:28:13.995Z,1.93
2023-04-20T01:28:58.964Z,1.93
2023-04-20T01:29:43.862Z,1.93
2023-04-20T01:30:28.855Z,1.93
2023-04-20T01:31:14.381Z,1.93
2023-04-20T01:31:59.402Z,1.93
2023-04-20T01:32:44.364Z,1.93
2023-04-20T01:33:29.207Z,1.93
2023-04-20T01:34:14.699Z,1.93
2023-04-20T01:34:59.536Z,1.93
2023-04-20T01:35:44.629Z,1.93
2023-04-20T01:36:29.652Z,1.93
2023-04-20T01:37:14.679Z,1.93
2023-04-20T01:37:59.529Z,1.93
2023-04-20T01:38:44.494Z,1.93
2023-04-20T01:39:29.788Z,1.93
2023-04-20T01:40:15.027Z,1.93
2023-04-20T01:40:59.780Z,1.93
2023-04-20T01:41:44.918Z,1.93
2023-04-20T01:42:29.868Z,1.93
2023-04-20T01:43:15.225Z,1.93
2023-04-20T01:43:59.984Z,1.93
2023-04-20T01:44:44.997Z,1.93
2023-04-20T01:45:29.784Z,1.93
2023-04-20T01:46:15.292Z,1.93
2023-04-20T01:47:00.466Z,1.93
2023-04-20T01:47:45.090Z,1.93
2023-04-20T01:48:29.328Z,1.93
2023-04-20T01:49:15.498Z,1.93
2023-04-20T01:50:00.148Z,1.93
2023-04-20T01:50:45.178Z,1.93
2023-04-20T01:51:30.224Z,1.93
2023-04-20T01:52:15.535Z,1.93
2023-04-20T01:53:00.444Z,1.93
2023-04-20T01:53:45.397Z,1.93
2023-04-20T01:54:30.560Z,1.93
2023-04-20T01:55:13.055Z,1.93
2023-04-20T01:55:55.633Z,1.93
2023-04-20T01:56:42.072Z,1.93
2023-04-20T01:57:25.161Z,1.93
2023-04-20T01:58:10.125Z,1.93
2023-04-20T01:58:54.854Z,19.53
2023-04-20T01:59:39.833Z,20.14
2023-04-20T02:00:25.478Z,15.92
2023-04-20T02:01:10.693Z,15.92
2023-04-20T02:01:54.917Z,20.38
2023-04-20T02:02:39.956Z,29.85
2023-04-20T02:03:25.194Z,29.85
2023-04-20T02:04:10.892Z,29.85
2023-04-20T02:04:55.485Z,36.07
2023-04-20T02:05:40.061Z,37.65
2023-04-20T02:06:25.432Z,38.61
2023-04-20T02:07:10.354Z,38.61
2023-04-20T02:07:55.332Z,33.97
2023-04-20T02:08:40.998Z,33.97
2023-04-20T02:09:25.594Z,35.03
2023-04-20T02:10:10.840Z,28.57
2023-04-20T02:10:55.774Z,28.57
2023-04-20T02:11:40.913Z,28.57
2023-04-20T02:12:26.074Z,28.57
2023-04-20T02:13:11.131Z,28.57
2023-04-20T02:13:56.409Z,28.57
2023-04-20T02:14:41.184Z,28.57
2023-04-20T02:15:26.211Z,28.57
2023-04-20T02:16:11.381Z,28.57
2023-04-20T02:16:56.444Z,28.57
2023-04-20T02:17:41.465Z,28.57
2023-04-20T02:18:26.528Z,28.57
2023-04-20T02:19:11.172Z,28.57
2023-04-20T02:19:56.546Z,28.57
2023-04-20T02:20:42.109Z,28.57
2023-04-20T02:21:26.955Z,28.57
2023-04-20T02:22:12.116Z,28.57
2023-04-20T02:22:59.169Z,28.57
2023-04-20T02:23:42.641Z,28.57
2023-04-20T02:24:27.599Z,28.57
2023-04-20T02:25:12.931Z,28.57
2023-04-20T02:25:57.124Z,28.57
2023-04-20T02:26:42.043Z,28.57
2023-04-20T02:27:28.637Z,28.57
2023-04-20T02:28:13.906Z,28.57
2023-04-20T02:28:58.565Z,28.57
2023-04-20T02:29:44.323Z,28.57
2023-04-20T02:30:28.994Z,28.57
2023-04-20T02:31:14.557Z,28.57
2023-04-20T02:31:59.561Z,28.57
2023-04-20T02:32:42.267Z,28.57
2023-04-20T02:33:27.467Z,28.57
2023-04-20T02:34:13.176Z,28.57
2023-04-20T02:34:57.575Z,28.57
2023-04-20T02:35:42.633Z,28.57
2023-04-20T02:36:27.788Z,28.57
2023-04-20T02:37:13.143Z,28.57
2023-04-20T02:37:58.200Z,28.57
2023-04-20T02:38:44.279Z,28.57
2023-04-20T02:39:30.004Z,28.57
2023-04-20T02:40:15.548Z,28.57
2023-04-20T02:41:00.877Z,28.57
2023-04-20T02:41:45.081Z,28.57
2023-04-20T02:42:29.520Z,28.57
2023-04-20T02:43:14.932Z,28.57
2023-04-20T02:44:00.851Z,28.57
2023-04-20T02:44:45.425Z,28.57
2023-04-20T02:45:29.171Z,28.57
2023-04-20T02:46:15.869Z,28.57
2023-04-20T02:47:00.514Z,28.57
2023-04-20T02:47:45.627Z,28.57
2023-04-20T02:48:29.391Z,28.57
2023-04-20T02:49:15.534Z,28.57
2023-04-20T02:49:59.350Z,28.57
2023-04-20T02:50:44.242Z,28.57
2023-04-20T02:51:31.568Z,28.57
2023-04-20T02:52:16.524Z,28.57
2023-04-20T02:53:00.474Z,28.57
2023-04-20T02:53:43.886Z,28.57
2023-04-20T02:54:28.833Z,28.57
2023-04-20T02:55:14.525Z,28.57
2023-04-20T02:56:00.153Z,28.57
2023-04-20T02:56:44.765Z,28.57
2023-04-20T02:57:29.634Z,28.57
2023-04-20T02:58:15.956Z,28.57
2023-04-20T02:59:01.674Z,28.57
2023-04-20T02:59:45.419Z,28.57
2023-04-20T03:00:31.633Z,28.57
2023-04-20T03:01:15.362Z,28.57
2023-04-20T03:01:59.928Z,28.57
2023-04-20T03:02:45.569Z,28.57
2023-04-20T03:03:32.328Z,28.57
2023-04-20T03:04:17.391Z,28.57
2023-04-20T03:05:03.154Z,28.57
2023-04-20T03:05:45.855Z,28.57
2023-04-20T03:06:29.964Z,28.57
2023-04-20T03:07:16.856Z,28.57
2023-04-20T03:08:02.609Z,28.57
2023-04-20T03:08:47.259Z,28.57
2023-04-20T03:09:32.720Z,28.57
2023-04-20T03:10:18.246Z,28.57
2023-04-20T03:11:02.732Z,28.57
2023-04-20T03:11:47.913Z,28.57
2023-04-20T03:12:34.382Z,28.57
2023-04-20T03:13:15.245Z,28.57
2023-04-20T03:14:01.526Z,28.57
2023-04-20T03:14:46.693Z,28.57
2023-04-20T03:15:34.204Z,28.57
2023-04-20T03:16:18.259Z,28.57
2023-04-20T03:17:02.177Z,28.57
2023-04-20T03:17:47.542Z,28.57
2023-04-20T03:18:31.570Z,28.57
2023-04-20T03:19:20.100Z,28.57
2023-04-20T03:20:01.768Z,28.57
2023-04-20T03:20:47.442Z,28.57
2023-04-20T03:21:32.190Z,28.57
2023-04-20T03:22:20.708Z,28.57
2023-04-20T03:23:03.175Z,28.57
2023-04-20T03:23:51.556Z,28.57
2023-04-20T03:24:36.932Z,28.57
2023-04-20T03:25:21.577Z,28.57
2023-04-20T03:26:06.621Z,28.57
2023-04-20T03:26:51.795Z,28.57
2023-04-20T03:27:37.008Z,28.57
2023-04-20T03:28:22.099Z,28.57
2023-04-20T03:29:07.054Z,28.57
2023-04-20T03:29:51.904Z,28.57
2023-04-20T03:30:37.183Z,28.57
2023-04-20T03:31:22.176Z,28.57
2023-04-20T03:32:07.316Z,28.57
2023-04-20T03:32:52.229Z,28.57
2023-04-20T03:33:37.308Z,28.57
2023-04-20T03:34:22.389Z,28.57
2023-04-20T03:35:07.513Z,28.57
2023-04-20T03:35:52.561Z,28.57
2023-04-20T03:36:37.575Z,28.57
2023-04-20T03:37:22.690Z,28.57
2023-04-20T03:38:07.580Z,28.57
2023-04-20T03:38:52.581Z,28.57
2023-04-20T03:39:37.674Z,28.57
2023-04-20T03:40:22.925Z,28.57
2023-04-20T03:41:07.874Z,28.57
2023-04-20T03:41:53.184Z,28.57
2023-04-20T03:42:38.109Z,28.57
2023-04-20T03:43:23.040Z,28.57
2023-04-20T03:44:08.386Z,28.57
2023-04-20T03:44:52.838Z,28.57
2023-04-20T03:45:37.958Z,28.57
2023-04-20T03:46:23.535Z,28.57
2023-04-20T03:47:04.228Z,30.59
2023-04-20T03:47:47.354Z,18.91
2023-04-20T03:48:32.213Z,27.81
2023-04-20T03:49:17.484Z,28.29
2023-04-20T03:50:02.217Z,27.49
2023-04-20T03:50:47.234Z,28.43
2023-04-20T03:51:32.040Z,36.96
2023-04-20T03:52:17.562Z,36.96
2023-04-20T03:53:02.610Z,36.96
2023-04-20T03:53:47.568Z,34.51
2023-04-20T03:54:33.014Z,34.12
2023-04-20T03:55:17.956Z,33.95
2023-04-20T03:56:02.422Z,33.01
2023-04-20T03:56:47.719Z,33.01
2023-04-20T03:57:33.060Z,33.95
2023-04-20T03:58:17.963Z,33.95
2023-04-20T03:59:02.860Z,33.37
2023-04-20T03:59:47.834Z,34.89
2023-04-20T04:00:33.082Z,33.77
2023-04-20T04:01:18.077Z,32.83
2023-04-20T04:02:03.178Z,32.64
2023-04-20T04:02:48.054Z,30.86
2023-04-20T04:03:33.209Z,32.83
2023-04-20T04:04:18.420Z,32.83
2023-04-20T04:05:03.326Z,29.26
2023-04-20T04:05:48.409Z,30.18
2023-04-20T04:06:33.524Z,31.71
2023-04-20T04:07:18.183Z,33.77
2023-04-20T04:08:03.370Z,31.71
2023-04-20T04:08:48.419Z,31.71
2023-04-20T04:09:33.656Z,30.95
2023-04-20T04:10:19.355Z,29.08
2023-04-20T04:11:03.784Z,28.91
2023-04-20T04:11:48.630Z,27.98
2023-04-20T04:12:33.760Z,25.33
2023-04-20T04:13:18.745Z,18.65
2023-04-20T04:14:03.811Z,25.33
2023-04-20T04:14:48.947Z,24.25
2023-04-20T04:15:33.905Z,20.52
2023-04-20T04:16:19.178Z,22.51
2023-04-20T04:17:04.167Z,21.57
2023-04-20T04:17:49.099Z,19.59
2023-04-20T04:18:34.092Z,15.85
2023-04-20T04:19:19.724Z,16.46
2023-04-20T04:20:03.828Z,10.97
2023-04-20T04:20:53.596Z,10.97
2023-04-20T04:21:33.887Z,17.37
2023-04-20T04:22:19.709Z,29.89
2023-04-20T04:23:04.875Z,34.71
2023-04-20T04:23:49.859Z,37.21
2023-04-20T04:24:34.794Z,40.10
2023-04-20T04:25:19.768Z,26.11
2023-04-20T04:26:08.989Z,26.11
2023-04-20T04:26:55.653Z,26.11
2023-04-20T04:27:40.448Z,26.11
2023-04-20T04:28:25.802Z,26.11
2023-04-20T04:29:11.083Z,26.11
2023-04-20T04:29:55.880Z,26.11
2023-04-20T04:30:41.688Z,26.11
2023-04-20T04:31:26.066Z,26.11
2023-04-20T04:32:10.871Z,26.11
2023-04-20T04:32:56.174Z,26.11
2023-04-20T04:33:41.124Z,26.11
2023-04-20T04:34:26.151Z,26.11
2023-04-20T04:35:11.216Z,26.11
2023-04-20T04:35:56.184Z,26.11
2023-04-20T04:36:41.168Z,26.11
2023-04-20T04:37:26.171Z,26.11
2023-04-20T04:38:11.436Z,26.11
2023-04-20T04:38:56.176Z,26.11
2023-04-20T04:39:41.551Z,26.11
2023-04-20T04:40:26.741Z,26.11
2023-04-20T04:41:11.593Z,26.11
2023-04-20T04:41:57.126Z,26.11
2023-04-20T04:42:42.318Z,26.11
2023-04-20T04:43:26.724Z,26.11
2023-04-20T04:44:11.790Z,26.11
2023-04-20T04:44:57.002Z,26.11
2023-04-20T04:45:41.899Z,26.11
2023-04-20T04:46:27.833Z,26.11
2023-04-20T04:47:12.904Z,26.11
2023-04-20T04:47:57.399Z,26.11
2023-04-20T04:48:42.020Z,26.11
2023-04-20T04:49:26.985Z,26.11
2023-04-20T04:50:12.368Z,26.11
2023-04-20T04:50:57.610Z,26.11
2023-04-20T04:51:42.619Z,26.11
2023-04-20T04:52:27.911Z,26.11
2023-04-20T04:53:12.422Z,26.11
2023-04-20T04:53:57.700Z,26.11
2023-04-20T04:54:42.571Z,26.11
2023-04-20T04:55:27.660Z,26.11
2023-04-20T04:56:12.891Z,26.11
2023-04-20T04:56:57.841Z,26.11
2023-04-20T04:57:42.942Z,26.11
2023-04-20T04:58:27.953Z,26.11
2023-04-20T04:59:13.010Z,26.11
2023-04-20T04:59:58.668Z,26.11
2023-04-20T05:00:38.618Z,27.05
2023-04-20T05:01:22.249Z,11.19
2023-04-20T05:02:07.509Z,9.33
2023-04-20T05:02:52.346Z,7.46
2023-04-20T05:03:37.601Z,11.19
2023-04-20T05:04:23.141Z,4.66
2023-04-20T05:05:09.017Z,6.53
2023-04-20T05:05:52.377Z,3.73
2023-04-20T05:06:37.941Z,4.66
2023-04-20T05:07:22.689Z,4.66
2023-04-20T05:08:07.642Z,4.66
2023-04-20T05:08:52.854Z,3.73
2023-04-20T05:09:37.946Z,2.80
2023-04-20T05:10:23.141Z,3.73
2023-04-20T05:11:07.972Z,4.54
2023-04-20T05:11:52.924Z,5.60
2023-04-20T05:12:38.088Z,6.53
2023-04-20T05:13:23.244Z,1.87
2023-04-20T05:14:07.995Z,4.66
2023-04-20T05:14:53.261Z,3.73
2023-04-20T05:15:38.110Z,3.73
2023-04-20T05:16:30.869Z,3.73
2023-04-20T05:17:08.540Z,5.60
2023-04-20T05:17:52.919Z,6.53
2023-04-20T05:18:38.639Z,9.33
2023-04-20T05:19:23.293Z,5.60
2023-04-20T05:20:08.633Z,3.73
2023-04-20T05:20:57.809Z,3.73
2023-04-20T05:21:44.400Z,3.73
2023-04-20T05:22:29.483Z,3.73
2023-04-20T05:23:10.248Z,11.19
2023-04-20T05:23:57.939Z,11.19
2023-04-20T05:24:44.932Z,11.19
2023-04-20T05:25:29.685Z,11.19
2023-04-20T05:26:15.076Z,11.19
2023-04-20T05:26:59.798Z,11.19
2023-04-20T05:27:44.756Z,11.19
2023-04-20T05:28:29.806Z,11.19
2023-04-20T05:29:15.151Z,11.19
2023-04-20T05:30:12.646Z,11.19
2023-04-20T05:30:45.255Z,11.19
2023-04-20T05:31:30.168Z,11.19
2023-04-20T05:32:15.297Z,11.19
2023-04-20T05:33:00.078Z,11.19
2023-04-20T05:33:45.345Z,11.19
2023-04-20T05:34:30.611Z,11.19
2023-04-20T05:35:15.306Z,11.19
2023-04-20T05:36:00.380Z,11.19
2023-04-20T05:36:45.529Z,11.19
2023-04-20T05:37:30.778Z,11.19
2023-04-20T05:38:15.635Z,11.19
2023-04-20T05:39:00.590Z,11.19
2023-04-20T05:39:45.644Z,11.19
2023-04-20T05:40:30.493Z,11.19
2023-04-20T05:41:16.163Z,11.19
2023-04-20T05:42:00.926Z,11.19
2023-04-20T05:42:45.805Z,11.19
2023-04-20T05:43:31.649Z,11.19
2023-04-20T05:44:15.983Z,11.19
2023-04-20T05:45:00.936Z,11.19
2023-04-20T05:45:46.954Z,11.19
2023-04-20T05:46:31.165Z,11.19
2023-04-20T05:47:16.222Z,11.19
2023-04-20T05:48:01.444Z,11.19
2023-04-20T05:48:46.116Z,11.19
2023-04-20T05:49:31.650Z,11.19
2023-04-20T05:50:17.687Z,11.19
2023-04-20T05:51:01.257Z,11.19
2023-04-20T05:51:46.240Z,11.19
2023-04-20T05:52:31.503Z,11.19
2023-04-20T05:53:16.675Z,11.19
2023-04-20T05:54:01.618Z,11.19
2023-04-20T05:54:46.466Z,11.19
2023-04-20T05:55:32.205Z,11.19
2023-04-20T05:56:16.928Z,11.19
2023-04-20T05:57:02.514Z,11.19
2023-04-20T05:57:47.240Z,11.19
2023-04-20T05:58:32.158Z,11.19
2023-04-20T05:59:17.472Z,11.19
2023-04-20T06:00:02.131Z,11.19
2023-04-20T06:00:46.778Z,11.19
2023-04-20T06:01:32.085Z,11.19
2023-04-20T06:02:17.543Z,11.19
2023-04-20T06:03:02.344Z,11.19
2023-04-20T06:03:47.628Z,11.19
2023-04-20T06:04:33.409Z,11.19
2023-04-20T06:05:17.720Z,11.19
2023-04-20T06:06:02.461Z,11.19
2023-04-20T06:06:47.783Z,11.19
2023-04-20T06:07:32.526Z,11.19
2023-04-20T06:08:18.016Z,11.19
2023-04-20T06:09:03.153Z,11.19
2023-04-20T06:09:47.832Z,11.19
2023-04-20T06:10:32.752Z,11.19
2023-04-20T06:11:17.759Z,11.19
2023-04-20T06:12:02.974Z,11.19
2023-04-20T06:12:47.931Z,11.19
2023-04-20T06:13:32.882Z,11.19
2023-04-20T06:14:17.934Z,11.19
2023-04-20T06:15:03.141Z,11.19
2023-04-20T06:15:48.006Z,11.19
2023-04-20T06:16:33.055Z,11.19
2023-04-20T06:17:18.037Z,11.19
2023-04-20T06:18:03.651Z,11.19
2023-04-20T06:18:48.172Z,11.19
2023-04-20T06:19:33.331Z,11.19
2023-04-20T06:20:18.222Z,11.19
2023-04-20T06:21:03.867Z,11.19
2023-04-20T06:21:48.756Z,11.19
2023-04-20T06:22:33.702Z,11.19
2023-04-20T06:23:18.617Z,11.19
2023-04-20T06:24:03.682Z,11.19
2023-04-20T06:24:48.864Z,11.19
2023-04-20T06:25:34.293Z,11.19
2023-04-20T06:26:19.148Z,11.19
2023-04-20T06:27:03.801Z,11.19
2023-04-20T06:27:49.616Z,11.19
2023-04-20T06:28:34.215Z,11.19
2023-04-20T06:29:19.430Z,11.19
2023-04-20T06:30:04.034Z,11.19
2023-04-20T06:30:49.008Z,11.19
2023-04-20T06:31:34.403Z,11.19
2023-04-20T06:32:19.305Z,11.19
2023-04-20T06:33:04.557Z,11.19
2023-04-20T06:33:49.209Z,11.19
2023-04-20T06:34:34.254Z,11.19
2023-04-20T06:35:19.523Z,11.19
2023-04-20T06:36:04.262Z,11.19
2023-04-20T06:36:49.345Z,11.19
2023-04-20T06:37:35.304Z,11.19
2023-04-20T06:38:19.453Z,11.19
2023-04-20T06:39:04.283Z,11.19
2023-04-20T06:39:49.506Z,11.19
2023-04-20T06:40:34.394Z,11.19
2023-04-20T06:41:19.755Z,11.19
2023-04-20T06:42:04.606Z,11.19
2023-04-20T06:42:49.673Z,11.19
2023-04-20T06:43:35.117Z,11.19
2023-04-20T06:44:20.084Z,11.19
2023-04-20T06:45:04.637Z,11.19
2023-04-20T06:45:50.555Z,11.19
2023-04-20T06:46:34.815Z,11.19
2023-04-20T06:47:20.253Z,11.19
2023-04-20T06:48:05.194Z,11.19
2023-04-20T06:48:50.226Z,11.19
2023-04-20T06:49:35.195Z,11.19
2023-04-20T06:50:20.125Z,11.19
2023-04-20T06:51:05.183Z,11.19
2023-04-20T06:51:50.217Z,11.19
2023-04-20T06:52:35.127Z,11.19
2023-04-20T06:53:20.258Z,11.19
2023-04-20T06:54:05.212Z,11.19
2023-04-20T06:54:50.485Z,11.19
2023-04-20T06:55:35.649Z,11.19
2023-04-20T06:56:20.423Z,11.19
2023-04-20T06:57:05.542Z,11.19
2023-04-20T06:57:50.391Z,11.19
2023-04-20T06:58:35.695Z,11.19
2023-04-20T06:59:20.999Z,11.19
2023-04-20T07:00:05.760Z,11.19
2023-04-20T07:00:50.933Z,11.19
2023-04-20T07:01:36.005Z,11.19
2023-04-20T07:02:21.218Z,11.19
2023-04-20T07:03:06.129Z,11.19
2023-04-20T07:03:52.018Z,11.19
2023-04-20T07:04:36.140Z,11.19
2023-04-20T07:05:20.792Z,11.19
2023-04-20T07:06:06.215Z,11.19
2023-04-20T07:06:52.513Z,11.19
2023-04-20T07:07:36.017Z,11.19
2023-04-20T07:08:21.462Z,11.19
2023-04-20T07:09:06.340Z,11.19
2023-04-20T07:09:51.035Z,11.19
2023-04-20T07:10:36.347Z,11.19
2023-04-20T07:11:21.399Z,11.19
2023-04-20T07:12:06.258Z,11.19
2023-04-20T07:12:51.696Z,11.19
2023-04-20T07:13:36.673Z,11.19
2023-04-20T07:14:21.730Z,11.19
2023-04-20T07:15:06.715Z,11.19
2023-04-20T07:15:51.968Z,11.19
2023-04-20T07:16:37.392Z,11.19
2023-04-20T07:17:21.969Z,11.19
2023-04-20T07:18:06.812Z,11.19
2023-04-20T07:18:45.832Z,17.61
2023-04-20T07:19:31.189Z,49.13
2023-04-20T07:20:16.654Z,49.13
2023-04-20T07:21:02.132Z,49.13
2023-04-20T07:21:47.584Z,49.13
2023-04-20T07:22:31.310Z,25.95
2023-04-20T07:23:20.778Z,25.95
2023-04-20T07:24:07.562Z,25.95
2023-04-20T07:24:52.521Z,25.95
2023-04-20T07:25:37.706Z,25.95
2023-04-20T07:26:22.476Z,25.95
2023-04-20T07:27:07.750Z,25.95
2023-04-20T07:27:46.802Z,17.72
2023-04-20T07:28:36.270Z,17.72
2023-04-20T07:29:23.604Z,17.72
2023-04-20T07:30:07.934Z,17.72
2023-04-20T07:30:52.881Z,17.72
2023-04-20T07:31:38.163Z,17.72
2023-04-20T07:32:23.555Z,17.72
2023-04-20T07:33:08.225Z,17.72
2023-04-20T07:33:53.209Z,17.72
2023-04-20T07:34:38.156Z,17.72
2023-04-20T07:35:23.222Z,17.72
2023-04-20T07:36:08.251Z,17.72
2023-04-20T07:36:53.326Z,17.72
2023-04-20T07:37:38.586Z,17.72
2023-04-20T07:38:23.439Z,17.72
2023-04-20T07:39:08.497Z,17.72
2023-04-20T07:39:53.630Z,17.72
2023-04-20T07:40:39.149Z,17.72
2023-04-20T07:41:23.429Z,17.72
2023-04-20T07:42:09.454Z,17.72
2023-04-20T07:42:53.673Z,17.72
2023-04-20T07:43:38.620Z,17.72
2023-04-20T07:44:24.396Z,17.72
2023-04-20T07:45:09.515Z,17.72
2023-04-20T07:45:54.803Z,17.72
2023-04-20T07:46:38.808Z,17.72
2023-04-20T07:47:23.819Z,17.72
2023-04-20T07:48:09.357Z,17.72
2023-04-20T07:48:54.159Z,17.72
2023-04-20T07:49:39.184Z,17.72
2023-04-20T07:50:24.046Z,17.72
2023-04-20T07:51:09.557Z,17.72
2023-04-20T07:51:58.619Z,17.72
2023-04-20T07:52:39.511Z,17.72
2023-04-20T07:53:24.609Z,17.72
2023-04-20T07:54:09.618Z,17.72
2023-04-20T07:54:54.876Z,17.72
2023-04-20T07:55:39.734Z,17.72
2023-04-20T07:56:24.833Z,17.72
2023-04-20T07:57:09.955Z,17.72
2023-04-20T07:57:55.473Z,17.72
2023-04-20T07:58:40.059Z,17.72
2023-04-20T07:59:24.913Z,17.72
2023-04-20T08:00:10.795Z,17.72
2023-04-20T08:00:55.333Z,17.72
2023-04-20T08:01:40.197Z,17.72
2023-04-20T08:02:25.357Z,17.72
2023-04-20T08:03:10.825Z,17.72
2023-04-20T08:03:55.352Z,17.72
2023-04-20T08:04:40.683Z,17.72
2023-04-20T08:05:25.928Z,17.72
2023-04-20T08:06:11.145Z,17.72
2023-04-20T08:06:55.475Z,17.72
2023-04-20T08:07:41.263Z,17.72
2023-04-20T08:08:25.901Z,17.72
2023-04-20T08:09:11.972Z,17.72
2023-04-20T08:09:55.653Z,17.72
2023-04-20T08:10:40.982Z,17.72
2023-04-20T08:11:25.922Z,17.72
2023-04-20T08:12:11.363Z,17.72
2023-04-20T08:12:55.939Z,17.72
2023-04-20T08:13:40.910Z,17.72
2023-04-20T08:14:26.123Z,17.72
2023-04-20T08:15:11.472Z,17.72
2023-04-20T08:15:56.012Z,17.72
2023-04-20T08:16:41.217Z,17.72
2023-04-20T08:17:26.104Z,17.72
2023-04-20T08:18:11.077Z,17.72
2023-04-20T08:18:56.181Z,17.72
2023-04-20T08:19:42.384Z,17.72
2023-04-20T08:20:26.315Z,17.72
2023-04-20T08:21:11.351Z,17.72
2023-04-20T08:21:56.408Z,17.72
2023-04-20T08:22:41.671Z,17.72
2023-04-20T08:23:26.515Z,17.72
2023-04-20T08:24:11.776Z,17.72
2023-04-20T08:24:56.782Z,17.72
2023-04-20T08:25:41.855Z,17.72
2023-04-20T08:26:27.064Z,17.72
2023-04-20T08:27:12.435Z,17.72
2023-04-20T08:27:56.862Z,17.72
2023-04-20T08:28:42.170Z,17.72
2023-04-20T08:29:26.697Z,17.72
2023-04-20T08:30:06.088Z,30.78
2023-04-20T08:30:51.238Z,34.51
2023-04-20T08:31:36.111Z,13.90
2023-04-20T08:32:25.771Z,13.90
2023-04-20T08:33:12.457Z,13.90
2023-04-20T08:33:57.093Z,13.90
2023-04-20T08:34:42.367Z,13.90
2023-04-20T08:35:27.515Z,13.90
2023-04-20T08:36:12.720Z,13.90
2023-04-20T08:36:57.539Z,13.90
2023-04-20T08:37:42.900Z,13.90
2023-04-20T08:38:33.737Z,13.90
2023-04-20T08:39:13.068Z,13.90
2023-04-20T08:39:57.861Z,13.90
2023-04-20T08:40:42.819Z,13.90
2023-04-20T08:41:28.101Z,13.90
2023-04-20T08:42:13.065Z,13.90
2023-04-20T08:42:58.219Z,13.90
2023-04-20T08:43:43.142Z,13.90
2023-04-20T08:44:28.196Z,13.90
2023-04-20T08:45:13.408Z,13.90
2023-04-20T08:45:58.303Z,13.90
2023-04-20T08:46:43.436Z,13.90
2023-04-20T08:47:28.560Z,13.90
2023-04-20T08:48:13.620Z,13.90
2023-04-20T08:48:58.438Z,13.90
2023-04-20T08:49:43.878Z,13.90
2023-04-20T08:50:28.648Z,13.90
2023-04-20T08:51:13.707Z,13.90
2023-04-20T08:51:58.415Z,13.90
2023-04-20T08:52:44.128Z,13.90
2023-04-20T08:53:28.885Z,13.90
2023-04-20T08:54:13.985Z,13.90
2023-04-20T08:54:58.891Z,13.90
2023-04-20T08:55:43.813Z,13.90
2023-04-20T08:56:29.110Z,13.90
2023-04-20T08:57:13.989Z,13.90
2023-04-20T08:57:59.418Z,13.90
2023-04-20T08:58:44.309Z,13.90
2023-04-20T08:59:29.185Z,13.90
2023-04-20T09:00:14.848Z,13.90
2023-04-20T09:00:59.232Z,13.90
2023-04-20T09:01:44.138Z,13.90
2023-04-20T09:02:29.263Z,13.90
2023-04-20T09:03:14.851Z,13.90
2023-04-20T09:03:59.541Z,13.90
2023-04-20T09:04:44.779Z,13.90
2023-04-20T09:05:29.740Z,13.90
2023-04-20T09:06:14.870Z,13.90
2023-04-20T09:06:59.705Z,13.90
2023-04-20T09:07:44.890Z,13.90
2023-04-20T09:08:29.738Z,13.90
2023-04-20T09:09:15.155Z,13.90
2023-04-20T09:09:59.686Z,13.90
2023-04-20T09:10:45.515Z,13.90
2023-04-20T09:11:30.168Z,13.90
2023-04-20T09:12:13.596Z,13.90
2023-04-20T09:12:59.923Z,13.90
2023-04-20T09:13:45.904Z,13.90
2023-04-20T09:14:30.758Z,13.90
2023-04-20T09:15:15.196Z,13.90
2023-04-20T09:16:00.243Z,13.90
2023-04-20T09:16:45.118Z,13.90
2023-04-20T09:17:30.497Z,13.90
2023-04-20T09:18:15.874Z,13.90
2023-04-20T09:19:00.494Z,13.90
2023-04-20T09:19:45.552Z,13.90
2023-04-20T09:20:30.495Z,13.90
2023-04-20T09:21:15.765Z,13.90
2023-04-20T09:22:00.998Z,13.90
2023-04-20T09:22:45.698Z,13.90
2023-04-20T09:23:30.921Z,13.90
2023-04-20T09:24:16.319Z,13.90
2023-04-20T09:25:01.282Z,13.90
2023-04-20T09:25:46.430Z,13.90
2023-04-20T09:26:31.384Z,13.90
2023-04-20T09:27:16.627Z,13.90
2023-04-20T09:28:01.674Z,13.90
2023-04-20T09:28:47.022Z,13.90
2023-04-20T09:29:31.971Z,13.90
2023-04-20T09:30:16.251Z,13.90
2023-04-20T09:31:01.497Z,13.90
2023-04-20T09:31:47.187Z,13.90
2023-04-20T09:32:31.941Z,13.90
2023-04-20T09:33:16.779Z,13.90
2023-04-20T09:34:01.869Z,13.90
2023-04-20T09:34:46.988Z,13.90
2023-04-20T09:35:31.724Z,13.90
2023-04-20T09:36:17.211Z,13.90
2023-04-20T09:37:01.940Z,13.90
2023-04-20T09:37:47.026Z,13.90
2023-04-20T09:38:32.036Z,13.90
2023-04-20T09:39:14.119Z,11.80
2023-04-20T09:40:00.527Z,11.80
2023-04-20T09:40:47.477Z,11.80
2023-04-20T09:41:32.175Z,11.80
2023-04-20T09:42:17.755Z,11.80
2023-04-20T09:43:02.438Z,11.80
2023-04-20T09:43:48.170Z,11.80
2023-04-20T09:44:32.389Z,11.80